createdAt,value
2023-02-07T00:00:02.573Z,28.90
2023-02-07T00:01:02.566Z,33.90
2023-02-07T00:02:02.612Z,30.20
2023-02-07T00:03:02.605Z,28.10
2023-02-07T00:04:02.538Z,32.10
2023-02-07T00:05:02.537Z,27.90
2023-02-07T00:06:02.502Z,27.60
2023-02-07T00:07:02.504Z,22.20
2023-02-07T00:08:02.475Z,27.80
2023-02-07T00:09:02.487Z,31.10
2023-02-07T00:10:02.468Z,30.20
2023-02-07T00:11:02.448Z,32.90
2023-02-07T00:12:02.436Z,33.10
2023-02-07T00:13:04.250Z,40.50
2023-02-07T00:14:02.475Z,32.50
2023-02-07T00:15:02.430Z,31.30
2023-02-07T00:16:02.395Z,30.00
2023-02-07T00:17:02.399Z,28.90
2023-02-07T00:18:02.384Z,32.10
2023-02-07T00:19:02.383Z,29.90
2023-02-07T00:20:02.366Z,32.20
2023-02-07T00:21:02.356Z,28.80
2023-02-07T00:22:02.330Z,31.90
2023-02-07T00:23:02.357Z,29.30
2023-02-07T00:24:02.313Z,29.30
2023-02-07T00:25:02.332Z,28.90
2023-02-07T00:26:02.296Z,26.90
2023-02-07T00:27:02.283Z,31.60
2023-02-07T00:28:02.353Z,29.90
2023-02-07T00:29:02.270Z,33.80
2023-02-07T00:30:02.260Z,30.90
2023-02-07T00:31:02.329Z,27.70
2023-02-07T00:32:02.248Z,32.00
2023-02-07T00:33:02.224Z,33.80
2023-02-07T00:34:02.225Z,35.30
2023-02-07T00:35:02.221Z,35.40
2023-02-07T00:36:02.184Z,30.60
2023-02-07T00:37:02.202Z,35.20
2023-02-07T00:38:02.168Z,31.90
2023-02-07T00:39:02.182Z,37.70
2023-02-07T00:40:02.178Z,35.90
2023-02-07T00:41:02.137Z,37.10
2023-02-07T00:42:02.145Z,34.70
2023-02-07T00:43:02.136Z,35.10
2023-02-07T00:44:02.102Z,32.20
2023-02-07T00:45:02.123Z,32.40
2023-02-07T00:46:02.102Z,31.90
2023-02-07T00:47:02.083Z,32.50
2023-02-07T00:48:02.064Z,31.70
2023-02-07T00:49:02.058Z,32.90
2023-02-07T00:50:02.056Z,33.70
2023-02-07T00:51:02.032Z,30.20
2023-02-07T00:52:02.045Z,34.10
2023-02-07T00:53:02.017Z,34.80
2023-02-07T00:54:02.001Z,31.00
2023-02-07T00:55:02.039Z,32.20
2023-02-07T00:56:01.994Z,25.30
2023-02-07T00:57:01.984Z,28.90
2023-02-07T00:58:01.957Z,26.00
2023-02-07T00:59:01.950Z,30.90
2023-02-07T01:00:01.955Z,31.40
2023-02-07T01:01:01.994Z,32.30
2023-02-07T01:02:01.923Z,30.00
2023-02-07T01:03:01.923Z,27.80
2023-02-07T01:04:01.904Z,32.90
2023-02-07T01:05:01.972Z,30.80
2023-02-07T01:06:01.894Z,32.20
2023-02-07T01:07:01.868Z,32.30
2023-02-07T01:08:01.876Z,30.00
2023-02-07T01:09:01.861Z,33.40
2023-02-07T01:10:01.859Z,34.20
2023-02-07T01:11:01.866Z,34.90
2023-02-07T01:12:01.817Z,31.40
2023-02-07T01:13:01.811Z,31.60
2023-02-07T01:14:01.821Z,30.80
2023-02-07T01:15:01.818Z,30.30
2023-02-07T01:16:01.822Z,26.60
2023-02-07T01:17:01.774Z,30.30
2023-02-07T01:18:01.762Z,34.30
2023-02-07T01:19:01.765Z,31.60
2023-02-07T01:20:01.811Z,30.40
2023-02-07T01:21:01.751Z,32.20
2023-02-07T01:22:01.732Z,28.50
2023-02-07T01:23:01.723Z,27.80
2023-02-07T01:24:01.752Z,28.00
2023-02-07T01:25:01.706Z,29.20
2023-02-07T01:26:01.682Z,26.20
2023-02-07T01:27:01.665Z,26.80
2023-02-07T01:28:01.697Z,27.40
2023-02-07T01:29:01.642Z,30.80
2023-02-07T01:30:01.661Z,30.80
2023-02-07T01:31:01.711Z,33.50
2023-02-07T01:32:01.630Z,31.50
2023-02-07T01:33:01.620Z,31.10
2023-02-07T01:34:03.604Z,30.90
2023-02-07T01:35:01.596Z,26.30
2023-02-07T01:36:01.576Z,31.70
2023-02-07T01:37:01.568Z,26.70
2023-02-07T01:38:01.545Z,27.30
2023-02-07T01:39:01.549Z,30.90
2023-02-07T01:40:01.597Z,27.90
2023-02-07T01:41:01.538Z,32.60
2023-02-07T01:42:01.539Z,26.80
2023-02-07T01:43:01.538Z,28.30
2023-02-07T01:44:01.481Z,32.90
2023-02-07T01:45:01.496Z,33.40
2023-02-07T01:46:01.521Z,29.80
2023-02-07T01:47:01.464Z,31.80
2023-02-07T01:48:01.449Z,31.20
2023-02-07T01:49:01.444Z,35.20
2023-02-07T01:50:01.441Z,34.10
2023-02-07T01:51:01.429Z,31.40
2023-02-07T01:52:01.399Z,29.10
2023-02-07T01:53:01.397Z,30.40
2023-02-07T01:54:01.375Z,29.80
2023-02-07T01:55:01.401Z,29.60
2023-02-07T01:56:01.356Z,27.90
2023-02-07T01:57:01.375Z,26.40
2023-02-07T01:58:01.370Z,27.70
2023-02-07T01:59:01.328Z,29.90
2023-02-07T02:00:01.352Z,27.10
2023-02-07T02:01:01.311Z,25.80
2023-02-07T02:02:01.309Z,25.60
2023-02-07T02:03:01.306Z,24.00
2023-02-07T02:04:01.280Z,25.80
2023-02-07T02:05:01.298Z,26.30
2023-02-07T02:06:01.255Z,31.30
2023-02-07T02:07:01.245Z,26.30
2023-02-07T02:08:01.249Z,28.40
2023-02-07T02:09:01.221Z,26.20
2023-02-07T02:10:01.226Z,24.40
2023-02-07T02:11:01.200Z,32.50
2023-02-07T02:12:01.186Z,29.70
2023-02-07T02:13:01.216Z,27.80
2023-02-07T02:14:01.173Z,29.10
2023-02-07T02:15:01.221Z,28.70
2023-02-07T02:16:01.211Z,25.40
2023-02-07T02:17:01.144Z,26.70
2023-02-07T02:18:01.129Z,30.50
2023-02-07T02:19:01.143Z,27.80
2023-02-07T02:20:01.129Z,25.30
2023-02-07T02:21:01.113Z,26.60
2023-02-07T02:22:01.091Z,24.40
2023-02-07T02:23:01.090Z,28.30
2023-02-07T02:24:01.078Z,31.40
2023-02-07T02:25:01.077Z,32.30
2023-02-07T02:26:01.047Z,31.30
2023-02-07T02:27:01.040Z,36.70
2023-02-07T02:28:01.058Z,28.80
2023-02-07T02:29:01.040Z,27.10
2023-02-07T02:30:01.012Z,32.90
2023-02-07T02:31:01.043Z,29.20
2023-02-07T02:32:01.027Z,30.80
2023-02-07T02:33:00.978Z,34.00
2023-02-07T02:34:00.971Z,32.10
2023-02-07T02:35:00.968Z,30.40
2023-02-07T02:36:00.952Z,32.50
2023-02-07T02:37:00.943Z,30.10
2023-02-07T02:38:00.935Z,30.20
2023-02-07T02:39:00.924Z,26.70
2023-02-07T02:40:00.920Z,29.00
2023-02-07T02:41:00.888Z,30.10
2023-02-07T02:42:00.904Z,28.80
2023-02-07T02:43:00.885Z,32.70
2023-02-07T02:44:00.896Z,31.40
2023-02-07T02:45:00.869Z,29.70
2023-02-07T02:46:00.863Z,23.10
2023-02-07T02:47:00.839Z,27.70
2023-02-07T02:48:00.825Z,25.40
2023-02-07T02:49:00.836Z,24.80
2023-02-07T02:50:00.820Z,23.90
2023-02-07T02:51:00.790Z,28.20
2023-02-07T02:52:00.794Z,22.10
2023-02-07T02:53:00.777Z,23.40
2023-02-07T02:54:00.779Z,23.10
2023-02-07T02:55:00.783Z,25.20
2023-02-07T02:56:00.743Z,23.60
2023-02-07T02:57:00.729Z,20.20
2023-02-07T02:58:02.146Z,21.50
2023-02-07T02:59:00.709Z,23.40
2023-02-07T03:00:00.793Z,20.60
2023-02-07T03:01:00.715Z,25.60
2023-02-07T03:02:00.773Z,22.10
2023-02-07T03:03:00.674Z,23.40
2023-02-07T03:04:00.716Z,21.60
2023-02-07T03:05:00.737Z,27.40
2023-02-07T03:06:00.669Z,23.30
2023-02-07T03:07:00.627Z,22.70
2023-02-07T03:08:00.649Z,19.80
2023-02-07T03:09:00.618Z,21.90
2023-02-07T03:10:00.641Z,21.90
2023-02-07T03:11:00.606Z,25.50
2023-02-07T03:12:00.586Z,24.30
2023-02-07T03:13:00.570Z,24.10
2023-02-07T03:14:00.562Z,22.30
2023-02-07T03:15:00.583Z,29.60
2023-02-07T03:16:00.566Z,21.10
2023-02-07T03:17:00.526Z,26.10
2023-02-07T03:18:00.525Z,23.70
2023-02-07T03:19:00.502Z,23.00
2023-02-07T03:20:00.515Z,22.80
2023-02-07T03:21:01.406Z,26.10
2023-02-07T03:22:00.473Z,23.90
2023-02-07T03:23:00.481Z,21.80
2023-02-07T03:24:00.453Z,27.00
2023-02-07T03:25:00.460Z,25.10
2023-02-07T03:26:00.437Z,24.80
2023-02-07T03:27:00.431Z,27.60
2023-02-07T03:28:00.446Z,22.70
2023-02-07T03:29:00.398Z,27.20
2023-02-07T03:30:00.398Z,22.00
2023-02-07T03:31:00.434Z,20.50
2023-02-07T03:32:00.378Z,24.20
2023-02-07T03:33:00.354Z,22.80
2023-02-07T03:34:00.344Z,22.30
2023-02-07T03:35:00.357Z,25.20
2023-02-07T03:36:00.341Z,24.60
2023-02-07T03:37:00.324Z,21.60
2023-02-07T03:38:00.303Z,23.30
2023-02-07T03:39:00.295Z,22.90
2023-02-07T03:40:00.302Z,21.70
2023-02-07T03:41:00.283Z,21.70
2023-02-07T03:42:00.261Z,25.40
2023-02-07T03:43:00.250Z,23.20
2023-02-07T03:44:00.264Z,26.90
2023-02-07T03:45:00.257Z,23.60
2023-02-07T03:46:00.227Z,24.70
2023-02-07T03:47:00.208Z,26.10
2023-02-07T03:48:00.198Z,27.40
2023-02-07T03:49:00.183Z,24.30
2023-02-07T03:50:00.197Z,23.80
2023-02-07T03:51:00.167Z,20.50
2023-02-07T03:52:00.193Z,22.30
2023-02-07T03:53:00.147Z,21.20
2023-02-07T03:54:00.185Z,21.60
2023-02-07T03:55:00.133Z,22.70
2023-02-07T03:56:00.131Z,20.10
2023-02-07T03:57:00.111Z,18.70
2023-02-07T03:58:00.114Z,20.00
2023-02-07T03:59:00.114Z,19.70
2023-02-07T04:00:00.109Z,19.20
2023-02-07T04:01:00.133Z,21.00
2023-02-07T04:02:00.120Z,19.70
2023-02-07T04:03:00.043Z,21.50
2023-02-07T04:04:00.043Z,19.80
2023-02-07T04:05:00.055Z,24.40
2023-02-07T04:06:00.032Z,23.40
2023-02-07T04:07:00.007Z,22.50
2023-02-07T04:08:00.000Z,21.90
2023-02-07T04:08:59.982Z,22.90
2023-02-07T04:10:00.005Z,21.00
2023-02-07T04:10:59.981Z,23.40
2023-02-07T04:11:59.963Z,23.90
2023-02-07T04:12:59.958Z,20.60
2023-02-07T04:13:59.933Z,20.70
2023-02-07T04:14:59.928Z,21.40
2023-02-07T04:15:59.938Z,21.30
2023-02-07T04:16:59.903Z,20.10
2023-02-07T04:17:59.894Z,21.90
2023-02-07T04:18:59.881Z,21.10
2023-02-07T04:19:59.876Z,21.80
2023-02-07T04:20:59.866Z,25.00
2023-02-07T04:21:59.849Z,19.40
2023-02-07T04:22:59.838Z,20.90
2023-02-07T04:23:59.841Z,21.20
2023-02-07T04:24:59.823Z,21.00
2023-02-07T04:25:59.830Z,20.00
2023-02-07T04:26:59.800Z,22.70
2023-02-07T04:27:59.830Z,21.50
2023-02-07T04:28:59.774Z,24.10
2023-02-07T04:29:59.775Z,20.80
2023-02-07T04:30:59.810Z,23.80
2023-02-07T04:31:59.806Z,22.90
2023-02-07T04:32:59.761Z,19.40
2023-02-07T04:33:59.728Z,23.60
2023-02-07T04:34:59.710Z,18.90
2023-02-07T04:35:59.716Z,17.60
2023-02-07T04:36:59.696Z,20.00
2023-02-07T04:37:59.689Z,18.20
2023-02-07T04:38:59.674Z,22.50
2023-02-07T04:39:59.661Z,18.20
2023-02-07T04:40:59.676Z,22.20
2023-02-07T04:41:59.641Z,21.50
2023-02-07T04:42:59.639Z,22.60
2023-02-07T04:43:59.621Z,20.40
2023-02-07T04:44:59.632Z,23.60
2023-02-07T04:45:59.635Z,21.10
2023-02-07T04:46:59.591Z,21.20
2023-02-07T04:47:59.581Z,21.50
2023-02-07T04:48:59.564Z,21.30
2023-02-07T04:49:59.563Z,21.00
2023-02-07T04:50:59.567Z,19.40
2023-02-07T04:51:59.551Z,19.40
2023-02-07T04:52:59.541Z,19.30
2023-02-07T04:53:59.524Z,19.30
2023-02-07T04:54:59.501Z,20.50
2023-02-07T04:55:59.520Z,18.80
2023-02-07T04:56:59.493Z,18.40
2023-02-07T04:57:59.474Z,19.00
2023-02-07T04:58:59.463Z,21.50
2023-02-07T04:59:59.479Z,18.80
2023-02-07T05:00:59.507Z,20.90
2023-02-07T05:01:59.444Z,20.40
2023-02-07T05:03:00.730Z,20.50
2023-02-07T05:03:59.430Z,15.90
2023-02-07T05:04:59.403Z,17.10
2023-02-07T05:05:59.404Z,17.00
2023-02-07T05:06:59.376Z,16.00
2023-02-07T05:07:59.374Z,19.00
2023-02-07T05:08:59.377Z,15.90
2023-02-07T05:09:59.393Z,15.90
2023-02-07T05:10:59.350Z,19.40
2023-02-07T05:11:59.340Z,15.90
2023-02-07T05:12:59.340Z,17.90
2023-02-07T05:13:59.333Z,16.20
2023-02-07T05:14:59.450Z,18.90
2023-02-07T05:15:59.306Z,18.10
2023-02-07T05:16:59.381Z,20.10
2023-02-07T05:17:59.272Z,16.90
2023-02-07T05:18:59.278Z,18.20
2023-02-07T05:19:59.268Z,19.80
2023-02-07T05:20:59.264Z,17.50
2023-02-07T05:21:59.230Z,17.70
2023-02-07T05:22:59.226Z,18.60
2023-02-07T05:23:59.223Z,20.10
2023-02-07T05:24:59.216Z,17.70
2023-02-07T05:25:59.213Z,18.70
2023-02-07T05:26:59.182Z,20.40
2023-02-07T05:27:59.233Z,17.50
2023-02-07T05:28:59.165Z,19.30
2023-02-07T05:29:59.182Z,17.10
2023-02-07T05:30:59.247Z,19.10
2023-02-07T05:31:59.134Z,19.30
2023-02-07T05:32:59.119Z,20.80
2023-02-07T05:33:59.118Z,16.60
2023-02-07T05:34:59.092Z,19.10
2023-02-07T05:35:59.096Z,18.60
2023-02-07T05:36:59.099Z,17.50
2023-02-07T05:37:59.072Z,15.70
2023-02-07T05:38:59.070Z,17.00
2023-02-07T05:39:59.055Z,15.00
2023-02-07T05:40:59.075Z,17.00
2023-02-07T05:41:59.039Z,16.90
2023-02-07T05:42:59.042Z,18.50
2023-02-07T05:43:59.013Z,16.60
2023-02-07T05:44:59.014Z,17.90
2023-02-07T05:45:59.036Z,19.10
2023-02-07T05:46:59.003Z,17.40
2023-02-07T05:47:58.973Z,18.80
2023-02-07T05:48:58.950Z,15.20
2023-02-07T05:49:58.949Z,19.10
2023-02-07T05:50:58.936Z,16.30
2023-02-07T05:51:58.940Z,17.00
2023-02-07T05:52:58.905Z,18.80
2023-02-07T05:53:58.903Z,19.50
2023-02-07T05:54:58.930Z,19.90
2023-02-07T05:55:58.885Z,16.20
2023-02-07T05:56:58.969Z,16.60
2023-02-07T05:57:58.892Z,14.20
2023-02-07T05:58:58.858Z,15.40
2023-02-07T05:59:58.845Z,14.70
2023-02-07T06:00:58.841Z,15.60
2023-02-07T06:01:58.833Z,16.40
2023-02-07T06:02:58.817Z,17.30
2023-02-07T06:03:58.791Z,21.30
2023-02-07T06:04:58.789Z,21.40
2023-02-07T06:05:58.804Z,21.20
2023-02-07T06:06:58.791Z,19.50
2023-02-07T06:07:58.751Z,18.00
2023-02-07T06:08:58.778Z,16.30
2023-02-07T06:09:58.750Z,17.20
2023-02-07T06:10:58.728Z,16.00
2023-02-07T06:11:58.749Z,16.60
2023-02-07T06:12:58.725Z,15.90
2023-02-07T06:13:58.641Z,16.70
2023-02-07T06:14:58.681Z,17.70
2023-02-07T06:15:58.634Z,17.30
2023-02-07T06:16:58.644Z,18.20
2023-02-07T06:17:58.598Z,20.40
2023-02-07T06:18:58.649Z,19.30
2023-02-07T06:19:58.611Z,18.80
2023-02-07T06:20:58.551Z,20.00
2023-02-07T06:21:58.632Z,20.60
2023-02-07T06:22:58.589Z,21.70
2023-02-07T06:23:58.540Z,18.40
2023-02-07T06:24:58.521Z,19.90
2023-02-07T06:25:58.504Z,21.20
2023-02-07T06:26:58.505Z,23.40
2023-02-07T06:27:58.506Z,16.60
2023-02-07T06:28:58.474Z,18.30
2023-02-07T06:29:58.467Z,18.80
2023-02-07T06:30:58.601Z,17.70
2023-02-07T06:31:58.472Z,15.70
2023-02-07T06:32:58.435Z,16.30
2023-02-07T06:33:58.429Z,16.50
2023-02-07T06:34:58.413Z,16.20
2023-02-07T06:35:58.418Z,18.40
2023-02-07T06:36:58.398Z,14.20
2023-02-07T06:37:58.382Z,17.20
2023-02-07T06:38:58.376Z,16.60
2023-02-07T06:39:58.361Z,15.00
2023-02-07T06:40:58.345Z,16.10
2023-02-07T06:41:58.358Z,14.60
2023-02-07T06:42:58.328Z,17.20
2023-02-07T06:43:58.334Z,16.90
2023-02-07T06:44:58.313Z,13.20
2023-02-07T06:45:58.329Z,14.80
2023-02-07T06:46:58.315Z,14.60
2023-02-07T06:47:58.283Z,16.90
2023-02-07T06:48:58.277Z,13.90
2023-02-07T06:49:58.277Z,16.50
2023-02-07T06:50:58.389Z,15.90
2023-02-07T06:51:58.249Z,16.90
2023-02-07T06:52:58.234Z,14.90
2023-02-07T06:53:58.217Z,16.60
2023-02-07T06:54:58.221Z,17.00
2023-02-07T06:55:58.193Z,15.80
2023-02-07T06:56:58.204Z,16.60
2023-02-07T06:57:58.177Z,16.40
2023-02-07T06:58:58.172Z,16.70
2023-02-07T06:59:58.161Z,16.00
2023-02-07T07:00:58.155Z,16.80
2023-02-07T07:01:58.158Z,17.00
2023-02-07T07:02:58.187Z,15.10
2023-02-07T07:03:58.124Z,15.50
2023-02-07T07:04:58.114Z,15.60
2023-02-07T07:05:58.099Z,15.30
2023-02-07T07:06:58.096Z,15.10
2023-02-07T07:07:58.071Z,17.50
2023-02-07T07:08:58.068Z,17.60
2023-02-07T07:09:58.076Z,17.30
2023-02-07T07:10:58.053Z,17.40
2023-02-07T07:11:58.040Z,18.20
2023-02-07T07:12:58.025Z,18.20
2023-02-07T07:13:58.013Z,24.30
2023-02-07T07:14:58.013Z,18.90
2023-02-07T07:15:58.023Z,20.50
2023-02-07T07:16:58.010Z,16.40
2023-02-07T07:17:57.975Z,18.80
2023-02-07T07:18:57.991Z,16.90
2023-02-07T07:19:57.953Z,17.50
2023-02-07T07:20:57.944Z,17.20
2023-02-07T07:21:57.930Z,19.60
2023-02-07T07:22:57.934Z,16.90
2023-02-07T07:23:57.909Z,15.80
2023-02-07T07:24:57.904Z,18.80
2023-02-07T07:25:57.893Z,19.50
2023-02-07T07:26:57.887Z,21.00
2023-02-07T07:27:57.917Z,19.40
2023-02-07T07:28:57.875Z,20.30
2023-02-07T07:29:57.845Z,19.50
2023-02-07T07:30:58.026Z,19.20
2023-02-07T07:31:57.833Z,18.90
2023-02-07T07:32:57.833Z,18.80
2023-02-07T07:33:57.809Z,17.00
2023-02-07T07:34:57.804Z,15.20
2023-02-07T07:35:57.784Z,20.30
2023-02-07T07:36:57.775Z,18.40
2023-02-07T07:37:57.775Z,15.50
2023-02-07T07:38:57.751Z,15.50
2023-02-07T07:39:57.754Z,15.20
2023-02-07T07:40:57.733Z,14.40
2023-02-07T07:41:57.724Z,17.50
2023-02-07T07:42:57.737Z,16.00
2023-02-07T07:43:57.698Z,16.50
2023-02-07T07:44:57.703Z,15.60
2023-02-07T07:45:57.710Z,15.50
2023-02-07T07:46:57.684Z,16.30
2023-02-07T07:47:57.698Z,17.70
2023-02-07T07:48:57.656Z,13.70
2023-02-07T07:49:57.641Z,16.30
2023-02-07T07:50:57.626Z,16.60
2023-02-07T07:51:57.602Z,13.50
2023-02-07T07:52:57.624Z,14.10
2023-02-07T07:53:57.589Z,12.40
2023-02-07T07:54:57.592Z,12.20
2023-02-07T07:55:57.562Z,11.10
2023-02-07T07:56:57.561Z,12.20
2023-02-07T07:57:57.564Z,13.80
2023-02-07T07:58:57.541Z,11.00
2023-02-07T07:59:57.531Z,12.80
2023-02-07T08:00:57.559Z,11.60
2023-02-07T08:01:57.509Z,11.20
2023-02-07T08:02:57.505Z,12.70
2023-02-07T08:03:57.521Z,10.20
2023-02-07T08:04:57.476Z,13.30
2023-02-07T08:05:57.465Z,11.60
2023-02-07T08:06:57.455Z,11.10
2023-02-07T08:07:57.456Z,11.60
2023-02-07T08:08:57.427Z,10.40
2023-02-07T08:09:57.415Z,12.80
2023-02-07T08:10:57.413Z,10.70
2023-02-07T08:11:57.396Z,14.70
2023-02-07T08:12:57.396Z,11.30
2023-02-07T08:13:57.373Z,11.60
2023-02-07T08:14:57.368Z,12.40
2023-02-07T08:15:57.425Z,14.10
2023-02-07T08:16:57.343Z,10.50
2023-02-07T08:17:57.337Z,11.10
2023-02-07T08:18:57.324Z,10.90
2023-02-07T08:19:57.318Z,12.60
2023-02-07T08:20:57.299Z,11.70
2023-02-07T08:21:57.287Z,11.20
2023-02-07T08:22:57.289Z,10.40
2023-02-07T08:23:57.262Z,11.20
2023-02-07T08:24:57.260Z,12.50
2023-02-07T08:25:57.241Z,12.20
2023-02-07T08:26:57.253Z,11.20
2023-02-07T08:27:57.262Z,11.60
2023-02-07T08:28:57.221Z,10.90
2023-02-07T08:29:57.204Z,9.80
2023-02-07T08:30:57.208Z,12.20
2023-02-07T08:31:57.207Z,9.20
2023-02-07T08:32:57.166Z,9.00
2023-02-07T08:33:57.166Z,9.10
2023-02-07T08:34:57.146Z,8.90
2023-02-07T08:35:57.132Z,9.80
2023-02-07T08:36:57.139Z,9.60
2023-02-07T08:37:57.112Z,9.20
2023-02-07T08:38:57.116Z,9.50
2023-02-07T08:39:57.114Z,9.30
2023-02-07T08:40:57.089Z,10.20
2023-02-07T08:41:57.086Z,9.60
2023-02-07T08:42:57.079Z,8.70
2023-02-07T08:43:57.056Z,8.90
2023-02-07T08:44:57.036Z,8.50
2023-02-07T08:45:57.095Z,9.20
2023-02-07T08:46:57.017Z,8.20
2023-02-07T08:47:57.001Z,9.20
2023-02-07T08:48:57.010Z,8.80
2023-02-07T08:49:56.994Z,8.80
2023-02-07T08:50:57.975Z,8.40
2023-02-07T08:51:56.964Z,9.90
2023-02-07T08:52:56.953Z,10.30
2023-02-07T08:53:56.950Z,10.30
2023-02-07T08:54:56.926Z,9.90
2023-02-07T08:55:56.920Z,9.00
2023-02-07T08:56:56.903Z,8.50
2023-02-07T08:57:56.900Z,11.00
2023-02-07T08:58:56.894Z,9.00
2023-02-07T08:59:56.875Z,9.40
2023-02-07T09:00:56.873Z,8.90
2023-02-07T09:01:56.885Z,9.20
2023-02-07T09:02:56.843Z,9.10
2023-02-07T09:03:56.833Z,9.00
2023-02-07T09:04:56.820Z,9.30
2023-02-07T09:05:56.819Z,8.90
2023-02-07T09:06:56.819Z,9.10
2023-02-07T09:07:56.787Z,9.50
2023-02-07T09:08:56.826Z,9.90
2023-02-07T09:09:56.770Z,9.70
2023-02-07T09:10:56.868Z,9.80
2023-02-07T09:11:56.740Z,8.00
2023-02-07T09:12:56.752Z,9.50
2023-02-07T09:13:56.732Z,9.30
2023-02-07T09:14:56.723Z,8.40
2023-02-07T09:15:56.719Z,8.30
2023-02-07T09:16:56.720Z,10.30
2023-02-07T09:17:56.678Z,8.80
2023-02-07T09:18:56.722Z,8.10
2023-02-07T09:19:56.660Z,9.30
2023-02-07T09:20:56.658Z,8.90
2023-02-07T09:21:56.643Z,8.70
2023-02-07T09:22:56.675Z,8.80
2023-02-07T09:23:56.676Z,9.00
2023-02-07T09:24:56.626Z,8.50
2023-02-07T09:25:56.591Z,8.40
2023-02-07T09:26:56.587Z,7.90
2023-02-07T09:27:56.634Z,9.20
2023-02-07T09:28:56.577Z,8.50
2023-02-07T09:29:56.583Z,8.90
2023-02-07T09:30:56.612Z,8.30
2023-02-07T09:31:56.758Z,8.70
2023-02-07T09:32:56.525Z,8.70
2023-02-07T09:33:56.527Z,9.30
2023-02-07T09:34:56.614Z,8.80
2023-02-07T09:35:56.492Z,8.70
2023-02-07T09:36:56.483Z,7.50
2023-02-07T09:37:56.497Z,7.70
2023-02-07T09:38:56.471Z,8.80
2023-02-07T09:39:56.446Z,8.30
2023-02-07T09:40:56.440Z,8.50
2023-02-07T09:41:56.432Z,8.20
2023-02-07T09:42:56.729Z,8.50
2023-02-07T09:43:56.583Z,8.10
2023-02-07T09:44:56.732Z,9.50
2023-02-07T09:45:56.444Z,7.60
2023-02-07T09:46:56.380Z,8.00
2023-02-07T09:47:56.358Z,9.40
2023-02-07T09:48:56.365Z,8.20
2023-02-07T09:49:56.342Z,8.20
2023-02-07T09:50:56.338Z,7.90
2023-02-07T09:51:56.334Z,8.40
2023-02-07T09:52:56.317Z,8.50
2023-02-07T09:53:56.321Z,8.50
2023-02-07T09:54:56.291Z,9.10
2023-02-07T09:55:56.323Z,8.40
2023-02-07T09:56:56.270Z,9.10
2023-02-07T09:57:56.256Z,8.80
2023-02-07T09:58:56.260Z,8.50
2023-02-07T09:59:56.232Z,8.50
2023-02-07T10:00:56.268Z,8.80
2023-02-07T10:01:56.228Z,8.70
2023-02-07T10:02:56.254Z,9.90
2023-02-07T10:03:56.229Z,8.50
2023-02-07T10:04:56.176Z,8.40
2023-02-07T10:05:57.186Z,8.60
2023-02-07T10:06:56.170Z,9.40
2023-02-07T10:07:56.138Z,9.00
2023-02-07T10:08:56.152Z,8.60
2023-02-07T10:09:56.126Z,11.40
2023-02-07T10:10:56.148Z,9.20
2023-02-07T10:11:56.142Z,9.70
2023-02-07T10:12:56.090Z,8.60
2023-02-07T10:13:56.177Z,8.30
2023-02-07T10:14:56.116Z,8.30
2023-02-07T10:15:56.127Z,8.30
2023-02-07T10:16:56.056Z,9.00
2023-02-07T10:17:56.084Z,8.80
2023-02-07T10:18:56.042Z,8.70
2023-02-07T10:19:56.067Z,7.70
2023-02-07T10:20:56.028Z,8.80
2023-02-07T10:21:56.013Z,8.90
2023-02-07T10:22:56.018Z,8.30
2023-02-07T10:23:56.084Z,8.70
2023-02-07T10:24:56.046Z,8.00
2023-02-07T10:25:56.003Z,8.60
2023-02-07T10:26:55.972Z,8.40
2023-02-07T10:27:56.038Z,8.30
2023-02-07T10:28:55.954Z,8.50
2023-02-07T10:29:55.989Z,8.10
2023-02-07T10:30:56.038Z,8.90
2023-02-07T10:31:56.170Z,8.70
2023-02-07T10:32:55.889Z,10.20
2023-02-07T10:33:55.922Z,8.90
2023-02-07T10:34:55.904Z,8.20
2023-02-07T10:35:55.843Z,9.30
2023-02-07T10:36:55.865Z,8.60
2023-02-07T10:37:56.110Z,10.10
2023-02-07T10:39:07.723Z,9.10
2023-02-07T10:39:55.817Z,9.40
2023-02-07T10:40:55.818Z,8.10
2023-02-07T10:41:55.804Z,9.50
2023-02-07T10:42:55.843Z,8.50
2023-02-07T10:43:55.775Z,8.50
2023-02-07T10:44:55.759Z,8.00
2023-02-07T10:46:00.822Z,8.60
2023-02-07T10:46:55.785Z,8.20
2023-02-07T10:47:55.730Z,9.90
2023-02-07T10:48:55.736Z,9.20
2023-02-07T10:49:55.694Z,8.60
2023-02-07T10:50:55.746Z,8.40
2023-02-07T10:51:55.697Z,8.00
2023-02-07T10:52:55.668Z,7.90
2023-02-07T10:53:57.156Z,7.80
2023-02-07T10:54:55.682Z,8.30
2023-02-07T10:55:55.630Z,9.00
2023-02-07T10:56:57.804Z,9.40
2023-02-07T10:58:02.609Z,8.10
2023-02-07T10:58:55.665Z,9.80
2023-02-07T10:59:55.589Z,8.60
2023-02-07T11:00:55.591Z,8.80
2023-02-07T11:01:55.594Z,8.20
2023-02-07T11:02:55.708Z,8.00
2023-02-07T11:03:55.587Z,8.90
2023-02-07T11:04:55.578Z,8.00
2023-02-07T11:05:55.617Z,9.00
2023-02-07T11:06:55.545Z,8.40
2023-02-07T11:07:55.546Z,8.80
2023-02-07T11:08:55.663Z,9.10
2023-02-07T11:09:55.496Z,9.30
2023-02-07T11:10:55.482Z,9.40
2023-02-07T11:11:55.492Z,8.60
2023-02-07T11:12:55.472Z,8.80
2023-02-07T11:13:55.612Z,8.10
2023-02-07T11:14:55.461Z,8.70
2023-02-07T11:15:55.479Z,8.80
2023-02-07T11:16:55.422Z,9.70
2023-02-07T11:17:55.440Z,7.80
2023-02-07T11:18:55.420Z,8.30
2023-02-07T11:19:55.410Z,8.00
2023-02-07T11:20:55.398Z,8.90
2023-02-07T11:21:55.404Z,8.80
2023-02-07T11:22:55.347Z,7.90
2023-02-07T11:23:56.573Z,8.60
2023-02-07T11:24:55.334Z,8.10
2023-02-07T11:25:55.343Z,7.90
2023-02-07T11:26:55.300Z,8.30
2023-02-07T11:27:55.414Z,8.90
2023-02-07T11:28:55.306Z,8.40
2023-02-07T11:29:55.310Z,8.20
2023-02-07T11:30:55.408Z,8.80
2023-02-07T11:31:55.268Z,8.30
2023-02-07T11:32:55.269Z,9.20
2023-02-07T11:33:55.277Z,8.60
2023-02-07T11:34:55.259Z,8.80
2023-02-07T11:35:55.231Z,8.10
2023-02-07T11:36:55.232Z,9.00
2023-02-07T11:37:55.200Z,9.20
2023-02-07T11:38:55.203Z,9.90
2023-02-07T11:39:55.191Z,10.00
2023-02-07T11:40:55.203Z,8.30
2023-02-07T11:41:55.170Z,8.20
2023-02-07T11:42:55.157Z,8.60
2023-02-07T11:43:55.188Z,8.00
2023-02-07T11:44:55.149Z,10.50
2023-02-07T11:45:55.148Z,9.20
2023-02-07T11:46:55.142Z,9.10
2023-02-07T11:47:55.108Z,8.80
2023-02-07T11:48:55.113Z,10.10
2023-02-07T11:49:55.087Z,8.60
2023-02-07T11:50:55.081Z,8.90
2023-02-07T11:51:55.059Z,8.80
2023-02-07T11:52:55.069Z,8.50
2023-02-07T11:53:55.046Z,9.20
2023-02-07T11:54:55.040Z,9.30
2023-02-07T11:55:55.038Z,9.20
2023-02-07T11:56:55.029Z,9.80
2023-02-07T11:57:55.011Z,8.50
2023-02-07T11:58:55.017Z,8.60
2023-02-07T11:59:54.982Z,9.60
2023-02-07T12:00:55.018Z,8.60
2023-02-07T12:01:55.011Z,8.40
2023-02-07T12:02:54.969Z,8.60
2023-02-07T12:03:54.982Z,10.10
2023-02-07T12:04:55.002Z,9.30
2023-02-07T12:05:54.921Z,9.20
2023-02-07T12:06:54.918Z,8.30
2023-02-07T12:07:54.951Z,8.70
2023-02-07T12:08:54.980Z,8.80
2023-02-07T12:09:54.884Z,9.50
2023-02-07T12:10:54.906Z,9.80
2023-02-07T12:11:54.875Z,8.20
2023-02-07T12:12:55.002Z,9.40
2023-02-07T12:13:54.873Z,80.60
2023-02-07T12:14:54.857Z,8.60
2023-02-07T12:15:54.869Z,12.80
2023-02-07T12:16:54.820Z,8.90
2023-02-07T12:17:54.808Z,11.20
2023-02-07T12:18:54.799Z,21.20
2023-02-07T12:19:54.779Z,51.30
2023-02-07T12:20:54.766Z,8.30
2023-02-07T12:21:54.779Z,9.50
2023-02-07T12:23:07.773Z,48.60
2023-02-07T12:23:54.756Z,9.30
2023-02-07T12:24:54.737Z,9.40
2023-02-07T12:25:54.723Z,30.10
2023-02-07T12:26:54.714Z,10.20
2023-02-07T12:27:54.773Z,9.00
2023-02-07T12:29:01.360Z,9.10
2023-02-07T12:29:54.722Z,8.90
2023-02-07T12:30:54.695Z,9.20
2023-02-07T12:31:54.774Z,9.50
2023-02-07T12:32:54.733Z,14.50
2023-02-07T12:33:54.656Z,9.60
2023-02-07T12:34:54.646Z,37.80
2023-02-07T12:35:57.492Z,10.20
2023-02-07T12:36:54.596Z,13.10
2023-02-07T12:37:54.595Z,9.80
2023-02-07T12:38:54.594Z,20.20
2023-02-07T12:39:54.629Z,9.70
2023-02-07T12:40:54.558Z,11.30
2023-02-07T12:41:54.687Z,9.00
2023-02-07T12:42:54.546Z,10.00
2023-02-07T12:43:54.537Z,10.10
2023-02-07T12:44:54.520Z,10.00
2023-02-07T12:45:54.552Z,9.30
2023-02-07T12:46:54.498Z,9.20
2023-02-07T12:47:54.492Z,26.30
2023-02-07T12:48:54.517Z,23.00
2023-02-07T12:49:54.484Z,18.10
2023-02-07T12:50:54.490Z,16.40
2023-02-07T12:51:54.457Z,9.90
2023-02-07T12:52:54.435Z,76.50
2023-02-07T12:53:54.478Z,12.70
2023-02-07T12:54:54.413Z,9.50
2023-02-07T12:55:54.415Z,8.50
2023-02-07T12:56:54.386Z,9.30
2023-02-07T12:57:54.383Z,92.30
2023-02-07T12:58:54.382Z,11.70
2023-02-07T12:59:54.365Z,9.40